sensor_id;sensor_type;location;lat;lon;timestamp;pressure;altitude;pressure_sealevel;temperature;humidity
51147;BME280;37207;53.060;18.726;2023-05-08T00:00:59;102098.34;;;5.21;73.69
51147;BME280;37207;53.060;18.726;2023-05-08T00:03:25;102102.11;;;5.20;73.82
51147;BME280;37207;53.060;18.726;2023-05-08T00:05:52;102101.61;;;5.18;74.03
51147;BME280;37207;53.060;18.726;2023-05-08T00:08:21;102105.14;;;5.17;74.16
51147;BME280;37207;53.060;18.726;2023-05-08T00:10:47;102105.30;;;5.17;74.36
51147;BME280;37207;53.060;18.726;2023-05-08T00:13:14;102106.66;;;5.20;74.46
51147;BME280;37207;53.060;18.726;2023-05-08T00:15:40;102104.46;;;5.20;74.27
51147;BME280;37207;53.060;18.726;2023-05-08T00:18:07;102103.29;;;5.15;74.25
51147;BME280;37207;53.060;18.726;2023-05-08T00:20:34;102100.29;;;5.10;74.30
51147;BME280;37207;53.060;18.726;2023-05-08T00:23:00;102105.13;;;5.05;74.26
51147;BME280;37207;53.060;18.726;2023-05-08T00:25:27;102099.60;;;5.03;74.43
51147;BME280;37207;53.060;18.726;2023-05-08T00:27:53;102100.80;;;5.02;74.64
51147;BME280;37207;53.060;18.726;2023-05-08T00:30:20;102101.07;;;5.00;74.79
51147;BME280;37207;53.060;18.726;2023-05-08T00:32:47;102098.21;;;4.96;74.73
51147;BME280;37207;53.060;18.726;2023-05-08T00:35:13;102099.64;;;4.94;74.87
51147;BME280;37207;53.060;18.726;2023-05-08T00:37:40;102101.30;;;4.93;75.09
51147;BME280;37207;53.060;18.726;2023-05-08T00:40:09;102104.36;;;4.91;75.20
51147;BME280;37207;53.060;18.726;2023-05-08T00:42:36;102098.98;;;4.89;75.10
51147;BME280;37207;53.060;18.726;2023-05-08T00:45:03;102104.39;;;4.83;75.12
51147;BME280;37207;53.060;18.726;2023-05-08T00:47:31;102107.64;;;4.80;75.18
51147;BME280;37207;53.060;18.726;2023-05-08T00:49:58;102110.30;;;4.79;75.44
51147;BME280;37207;53.060;18.726;2023-05-08T00:52:30;102112.02;;;4.80;75.65
51147;BME280;37207;53.060;18.726;2023-05-08T00:55:00;102112.55;;;4.81;75.84
51147;BME280;37207;53.060;18.726;2023-05-08T00:57:30;102114.69;;;4.80;75.55
51147;BME280;37207;53.060;18.726;2023-05-08T00:59:59;102114.96;;;4.75;75.62
51147;BME280;37207;53.060;18.726;2023-05-08T01:02:27;102122.19;;;4.73;75.65
51147;BME280;37207;53.060;18.726;2023-05-08T01:04:54;102125.94;;;4.72;75.72
51147;BME280;37207;53.060;18.726;2023-05-08T01:07:22;102126.34;;;4.71;75.76
51147;BME280;37207;53.060;18.726;2023-05-08T01:09:48;102126.58;;;4.71;75.77
51147;BME280;37207;53.060;18.726;2023-05-08T01:15:31;102129.05;;;4.67;75.97
51147;BME280;37207;53.060;18.726;2023-05-08T01:21:04;102133.97;;;4.61;76.00
51147;BME280;37207;53.060;18.726;2023-05-08T01:37:38;102139.73;;;4.40;75.84
51147;BME280;37207;53.060;18.726;2023-05-08T01:40:31;102140.23;;;4.35;76.00
51147;BME280;37207;53.060;18.726;2023-05-08T01:43:38;102146.41;;;4.28;75.91
51147;BME280;37207;53.060;18.726;2023-05-08T01:46:21;102141.46;;;4.20;75.95
51147;BME280;37207;53.060;18.726;2023-05-08T01:48:58;102147.09;;;4.13;76.00
51147;BME280;37207;53.060;18.726;2023-05-08T01:51:27;102142.98;;;4.07;76.37
51147;BME280;37207;53.060;18.726;2023-05-08T01:54:03;102144.09;;;4.05;76.65
51147;BME280;37207;53.060;18.726;2023-05-08T01:56:30;102142.77;;;4.04;76.88
51147;BME280;37207;53.060;18.726;2023-05-08T01:58:58;102143.55;;;4.04;77.22
51147;BME280;37207;53.060;18.726;2023-05-08T02:01:27;102144.04;;;4.02;77.01
51147;BME280;37207;53.060;18.726;2023-05-08T02:03:59;102149.53;;;3.99;76.92
51147;BME280;37207;53.060;18.726;2023-05-08T02:06:27;102152.84;;;3.97;76.91
51147;BME280;37207;53.060;18.726;2023-05-08T02:08:57;102157.30;;;3.96;76.81
51147;BME280;37207;53.060;18.726;2023-05-08T02:11:25;102158.02;;;3.95;76.83
51147;BME280;37207;53.060;18.726;2023-05-08T02:13:53;102158.81;;;3.91;76.68
51147;BME280;37207;53.060;18.726;2023-05-08T02:16:20;102157.41;;;3.90;76.69
51147;BME280;37207;53.060;18.726;2023-05-08T02:18:50;102159.92;;;3.89;76.75
51147;BME280;37207;53.060;18.726;2023-05-08T02:21:18;102164.52;;;3.88;76.89
51147;BME280;37207;53.060;18.726;2023-05-08T02:23:46;102169.45;;;3.88;77.01
51147;BME280;37207;53.060;18.726;2023-05-08T02:26:14;102170.79;;;3.87;77.01
51147;BME280;37207;53.060;18.726;2023-05-08T02:28:42;102170.10;;;3.83;76.94
51147;BME280;37207;53.060;18.726;2023-05-08T02:31:11;102171.98;;;3.81;76.93
51147;BME280;37207;53.060;18.726;2023-05-08T02:33:41;102173.05;;;3.79;77.12
51147;BME280;37207;53.060;18.726;2023-05-08T02:36:14;102170.73;;;3.74;77.19
51147;BME280;37207;53.060;18.726;2023-05-08T02:38:43;102164.66;;;3.68;77.00
51147;BME280;37207;53.060;18.726;2023-05-08T02:41:13;102171.63;;;3.64;77.05
51147;BME280;37207;53.060;18.726;2023-05-08T02:43:41;102173.93;;;3.61;77.12
51147;BME280;37207;53.060;18.726;2023-05-08T02:46:13;102179.63;;;3.61;77.26
51147;BME280;37207;53.060;18.726;2023-05-08T02:49:00;102180.33;;;3.61;77.23
51147;BME280;37207;53.060;18.726;2023-05-08T02:51:52;102179.88;;;3.60;77.09
51147;BME280;37207;53.060;18.726;2023-05-08T02:57:17;102185.83;;;3.54;76.75
51147;BME280;37207;53.060;18.726;2023-05-08T02:59:59;102184.20;;;3.49;76.83
51147;BME280;37207;53.060;18.726;2023-05-08T03:02:38;102183.00;;;3.44;76.96
51147;BME280;37207;53.060;18.726;2023-05-08T03:05:12;102184.65;;;3.40;77.02
51147;BME280;37207;53.060;18.726;2023-05-08T03:07:41;102185.44;;;3.38;77.01
51147;BME280;37207;53.060;18.726;2023-05-08T03:10:13;102187.70;;;3.36;77.25
51147;BME280;37207;53.060;18.726;2023-05-08T03:12:44;102186.07;;;3.34;77.13
51147;BME280;37207;53.060;18.726;2023-05-08T03:15:24;102184.66;;;3.35;77.30
51147;BME280;37207;53.060;18.726;2023-05-08T03:17:52;102185.20;;;3.37;77.14
51147;BME280;37207;53.060;18.726;2023-05-08T03:20:21;102184.67;;;3.36;77.44
51147;BME280;37207;53.060;18.726;2023-05-08T03:22:52;102188.55;;;3.39;77.77
51147;BME280;37207;53.060;18.726;2023-05-08T03:25:21;102194.00;;;3.45;77.99
51147;BME280;37207;53.060;18.726;2023-05-08T03:27:49;102192.52;;;3.43;77.61
51147;BME280;37207;53.060;18.726;2023-05-08T03:30:18;102193.00;;;3.42;77.45
51147;BME280;37207;53.060;18.726;2023-05-08T03:32:56;102194.63;;;3.43;77.69
51147;BME280;37207;53.060;18.726;2023-05-08T03:35:24;102196.27;;;3.46;77.88
51147;BME280;37207;53.060;18.726;2023-05-08T03:37:52;102196.92;;;3.49;77.90
51147;BME280;37207;53.060;18.726;2023-05-08T03:40:19;102199.73;;;3.53;77.89
51147;BME280;37207;53.060;18.726;2023-05-08T03:42:46;102197.30;;;3.56;77.85
51147;BME280;37207;53.060;18.726;2023-05-08T03:45:15;102200.80;;;3.58;77.78
51147;BME280;37207;53.060;18.726;2023-05-08T03:47:44;102196.73;;;3.61;78.13
51147;BME280;37207;53.060;18.726;2023-05-08T03:50:12;102193.08;;;3.67;78.08
51147;BME280;37207;53.060;18.726;2023-05-08T03:52:39;102197.73;;;3.75;78.19
51147;BME280;37207;53.060;18.726;2023-05-08T03:55:06;102203.89;;;3.79;78.15
51147;BME280;37207;53.060;18.726;2023-05-08T03:57:39;102198.20;;;3.88;78.29
51147;BME280;37207;53.060;18.726;2023-05-08T04:00:13;102200.96;;;3.97;78.50
51147;BME280;37207;53.060;18.726;2023-05-08T04:02:49;102201.98;;;4.04;78.68
51147;BME280;37207;53.060;18.726;2023-05-08T04:05:37;102204.39;;;4.08;78.73
51147;BME280;37207;53.060;18.726;2023-05-08T04:08:24;102205.08;;;4.13;78.84
51147;BME280;37207;53.060;18.726;2023-05-08T04:10:57;102206.88;;;4.20;78.92
51147;BME280;37207;53.060;18.726;2023-05-08T04:13:31;102207.14;;;4.27;78.96
51147;BME280;37207;53.060;18.726;2023-05-08T04:16:16;102211.20;;;4.38;79.03
51147;BME280;37207;53.060;18.726;2023-05-08T04:18:46;102213.28;;;4.49;79.19
51147;BME280;37207;53.060;18.726;2023-05-08T04:21:19;102210.69;;;4.61;79.47
51147;BME280;37207;53.060;18.726;2023-05-08T04:23:49;102213.15;;;4.72;79.62
51147;BME280;37207;53.060;18.726;2023-05-08T04:26:17;102215.25;;;4.96;79.61
51147;BME280;37207;53.060;18.726;2023-05-08T04:28:45;102219.98;;;5.22;80.22
51147;BME280;37207;53.060;18.726;2023-05-08T04:31:14;102222.30;;;5.43;79.96
51147;BME280;37207;53.060;18.726;2023-05-08T04:33:43;102224.27;;;5.85;80.03
51147;BME280;37207;53.060;18.726;2023-05-08T04:36:12;102232.84;;;6.37;79.85
51147;BME280;37207;53.060;18.726;2023-05-08T04:38:39;102234.01;;;6.78;79.38
51147;BME280;37207;53.060;18.726;2023-05-08T04:41:07;102233.44;;;7.10;78.48
51147;BME280;37207;53.060;18.726;2023-05-08T04:43:34;102232.05;;;7.41;78.02
51147;BME280;37207;53.060;18.726;2023-05-08T04:46:02;102238.52;;;7.76;77.53
51147;BME280;37207;53.060;18.726;2023-05-08T04:48:30;102238.54;;;8.00;76.90
51147;BME280;37207;53.060;18.726;2023-05-08T04:50:59;102242.79;;;8.24;76.12
51147;BME280;37207;53.060;18.726;2023-05-08T04:53:26;102249.38;;;8.55;75.77
51147;BME280;37207;53.060;18.726;2023-05-08T04:55:52;102252.08;;;8.72;75.38
51147;BME280;37207;53.060;18.726;2023-05-08T04:58:19;102256.59;;;8.95;75.05
51147;BME280;37207;53.060;18.726;2023-05-08T05:00:46;102263.19;;;9.12;74.78
51147;BME280;37207;53.060;18.726;2023-05-08T05:03:13;102259.55;;;9.18;74.50
51147;BME280;37207;53.060;18.726;2023-05-08T05:05:40;102262.11;;;9.16;74.13
51147;BME280;37207;53.060;18.726;2023-05-08T05:08:06;102258.61;;;9.28;73.95
51147;BME280;37207;53.060;18.726;2023-05-08T05:10:33;102256.02;;;9.50;73.59
51147;BME280;37207;53.060;18.726;2023-05-08T05:13:00;102254.38;;;9.58;73.52
51147;BME280;37207;53.060;18.726;2023-05-08T05:15:26;102257.39;;;9.57;73.51
51147;BME280;37207;53.060;18.726;2023-05-08T05:17:53;102256.02;;;9.51;73.37
51147;BME280;37207;53.060;18.726;2023-05-08T05:20:20;102259.36;;;9.44;73.47
51147;BME280;37207;53.060;18.726;2023-05-08T05:22:47;102263.45;;;9.38;73.43
51147;BME280;37207;53.060;18.726;2023-05-08T05:25:14;102261.55;;;9.34;73.73
51147;BME280;37207;53.060;18.726;2023-05-08T05:27:40;102269.49;;;9.36;73.77
51147;BME280;37207;53.060;18.726;2023-05-08T05:30:07;102265.84;;;9.40;73.84
51147;BME280;37207;53.060;18.726;2023-05-08T05:32:34;102263.55;;;9.47;73.67
51147;BME280;37207;53.060;18.726;2023-05-08T05:35:01;102265.58;;;9.47;73.45
51147;BME280;37207;53.060;18.726;2023-05-08T05:37:28;102263.90;;;9.48;73.10
51147;BME280;37207;53.060;18.726;2023-05-08T05:39:54;102266.06;;;9.47;73.28
51147;BME280;37207;53.060;18.726;2023-05-08T05:42:21;102267.26;;;9.47;72.97
51147;BME280;37207;53.060;18.726;2023-05-08T05:44:47;102268.74;;;9.47;72.94
51147;BME280;37207;53.060;18.726;2023-05-08T05:47:14;102273.44;;;9.48;72.88
51147;BME280;37207;53.060;18.726;2023-05-08T05:49:41;102275.45;;;9.47;72.31
51147;BME280;37207;53.060;18.726;2023-05-08T05:52:13;102271.05;;;9.46;71.96
51147;BME280;37207;53.060;18.726;2023-05-08T05:54:40;102275.27;;;9.48;72.11
51147;BME280;37207;53.060;18.726;2023-05-08T05:57:08;102275.34;;;9.50;71.91
51147;BME280;37207;53.060;18.726;2023-05-08T05:59:35;102274.25;;;9.52;71.55
51147;BME280;37207;53.060;18.726;2023-05-08T06:02:01;102274.35;;;9.54;71.25
51147;BME280;37207;53.060;18.726;2023-05-08T06:04:28;102274.94;;;9.56;71.15
51147;BME280;37207;53.060;18.726;2023-05-08T06:06:55;102278.95;;;9.59;70.70
51147;BME280;37207;53.060;18.726;2023-05-08T06:09:22;102277.77;;;9.59;70.18
51147;BME280;37207;53.060;18.726;2023-05-08T06:11:51;102281.32;;;9.61;70.23
51147;BME280;37207;53.060;18.726;2023-05-08T06:14:18;102286.38;;;9.64;69.82
51147;BME280;37207;53.060;18.726;2023-05-08T06:16:44;102286.80;;;9.66;69.59
51147;BME280;37207;53.060;18.726;2023-05-08T06:19:11;102288.82;;;9.69;69.86
51147;BME280;37207;53.060;18.726;2023-05-08T06:21:37;102294.08;;;9.75;69.92
51147;BME280;37207;53.060;18.726;2023-05-08T06:24:05;102292.48;;;9.82;69.87
51147;BME280;37207;53.060;18.726;2023-05-08T06:26:32;102296.20;;;9.89;69.64
51147;BME280;37207;53.060;18.726;2023-05-08T06:28:58;102293.67;;;9.97;69.55
51147;BME280;37207;53.060;18.726;2023-05-08T06:31:25;102292.55;;;10.08;69.17
51147;BME280;37207;53.060;18.726;2023-05-08T06:33:52;102291.83;;;10.20;69.10
51147;BME280;37207;53.060;18.726;2023-05-08T06:36:18;102294.02;;;10.30;68.52
51147;BME280;37207;53.060;18.726;2023-05-08T06:38:45;102294.71;;;10.39;68.16
51147;BME280;37207;53.060;18.726;2023-05-08T06:41:11;102294.41;;;10.51;68.14
51147;BME280;37207;53.060;18.726;2023-05-08T06:43:38;102286.02;;;10.63;67.79
51147;BME280;37207;53.060;18.726;2023-05-08T06:46:04;102289.43;;;10.74;67.39
51147;BME280;37207;53.060;18.726;2023-05-08T06:48:31;102288.21;;;10.88;66.91
51147;BME280;37207;53.060;18.726;2023-05-08T06:50:58;102287.55;;;11.00;65.86
51147;BME280;37207;53.060;18.726;2023-05-08T06:53:24;102287.95;;;11.08;65.13
51147;BME280;37207;53.060;18.726;2023-05-08T06:55:51;102286.79;;;11.19;64.97
51147;BME280;37207;53.060;18.726;2023-05-08T06:58:17;102289.27;;;11.31;64.85
51147;BME280;37207;53.060;18.726;2023-05-08T07:00:44;102290.61;;;11.47;64.50
51147;BME280;37207;53.060;18.726;2023-05-08T07:03:11;102296.99;;;11.63;64.18
51147;BME280;37207;53.060;18.726;2023-05-08T07:05:37;102299.08;;;11.77;63.92
51147;BME280;37207;53.060;18.726;2023-05-08T07:08:04;102300.27;;;11.92;63.43
51147;BME280;37207;53.060;18.726;2023-05-08T07:10:30;102297.76;;;12.08;62.72
51147;BME280;37207;53.060;18.726;2023-05-08T07:12:57;102299.16;;;12.27;63.72
51147;BME280;37207;53.060;18.726;2023-05-08T07:15:24;102300.80;;;12.49;63.19
51147;BME280;37207;53.060;18.726;2023-05-08T07:17:50;102303.39;;;12.71;63.34
51147;BME280;37207;53.060;18.726;2023-05-08T07:20:17;102303.41;;;12.95;62.26
51147;BME280;37207;53.060;18.726;2023-05-08T07:22:43;102299.04;;;13.14;60.97
51147;BME280;37207;53.060;18.726;2023-05-08T07:25:10;102302.44;;;13.31;60.23
51147;BME280;37207;53.060;18.726;2023-05-08T07:27:37;102301.42;;;13.50;60.69
51147;BME280;37207;53.060;18.726;2023-05-08T07:30:04;102302.35;;;13.70;60.12
51147;BME280;37207;53.060;18.726;2023-05-08T07:32:31;102299.77;;;13.86;59.17
51147;BME280;37207;53.060;18.726;2023-05-08T07:34:58;102298.85;;;14.06;59.00
51147;BME280;37207;53.060;18.726;2023-05-08T07:37:24;102298.88;;;14.27;57.99
51147;BME280;37207;53.060;18.726;2023-05-08T07:39:51;102293.06;;;14.46;58.57
51147;BME280;37207;53.060;18.726;2023-05-08T07:42:17;102293.58;;;14.69;58.02
51147;BME280;37207;53.060;18.726;2023-05-08T07:44:44;102288.52;;;14.91;58.09
51147;BME280;37207;53.060;18.726;2023-05-08T07:47:11;102290.38;;;15.13;57.93
51147;BME280;37207;53.060;18.726;2023-05-08T07:49:39;102292.68;;;15.33;57.38
51147;BME280;37207;53.060;18.726;2023-05-08T07:52:05;102291.20;;;15.52;57.68
51147;BME280;37207;53.060;18.726;2023-05-08T07:54:32;102290.61;;;15.73;56.99
51147;BME280;37207;53.060;18.726;2023-05-08T07:56:58;102286.79;;;15.99;57.02
51147;BME280;37207;53.060;18.726;2023-05-08T07:59:25;102287.73;;;16.20;55.43
51147;BME280;37207;53.060;18.726;2023-05-08T08:01:51;102289.55;;;16.30;54.82
51147;BME280;37207;53.060;18.726;2023-05-08T08:04:18;102284.42;;;16.48;54.79
51147;BME280;37207;53.060;18.726;2023-05-08T08:06:45;102282.17;;;16.69;55.38
51147;BME280;37207;53.060;18.726;2023-05-08T08:09:11;102289.17;;;16.81;53.52
51147;BME280;37207;53.060;18.726;2023-05-08T08:11:38;102292.23;;;16.81;53.34
51147;BME280;37207;53.060;18.726;2023-05-08T08:14:04;102290.39;;;16.84;52.30
51147;BME280;37207;53.060;18.726;2023-05-08T08:16:31;102287.00;;;16.81;51.53
51147;BME280;37207;53.060;18.726;2023-05-08T08:18:57;102290.91;;;16.85;52.57
51147;BME280;37207;53.060;18.726;2023-05-08T08:21:24;102286.66;;;16.94;52.48
51147;BME280;37207;53.060;18.726;2023-05-08T08:23:52;102290.55;;;17.10;52.69
51147;BME280;37207;53.060;18.726;2023-05-08T08:26:18;102287.33;;;17.28;52.78
51147;BME280;37207;53.060;18.726;2023-05-08T08:28:45;102279.78;;;17.49;52.15
51147;BME280;37207;53.060;18.726;2023-05-08T08:31:11;102280.59;;;17.64;51.74
51147;BME280;37207;53.060;18.726;2023-05-08T08:33:38;102281.20;;;17.82;51.06
51147;BME280;37207;53.060;18.726;2023-05-08T08:36:11;102277.61;;;17.97;51.07
51147;BME280;37207;53.060;18.726;2023-05-08T08:38:38;102280.34;;;18.14;50.38
51147;BME280;37207;53.060;18.726;2023-05-08T08:41:04;102280.71;;;18.26;49.31
51147;BME280;37207;53.060;18.726;2023-05-08T08:43:31;102278.14;;;18.38;48.56
51147;BME280;37207;53.060;18.726;2023-05-08T08:45:57;102275.47;;;18.51;47.35
51147;BME280;37207;53.060;18.726;2023-05-08T08:48:27;102273.71;;;18.57;47.46
51147;BME280;37207;53.060;18.726;2023-05-08T08:50:58;102274.58;;;18.62;46.81
51147;BME280;37207;53.060;18.726;2023-05-08T08:53:34;102277.71;;;18.69;46.72
51147;BME280;37207;53.060;18.726;2023-05-08T08:56:04;102270.04;;;18.85;47.11
51147;BME280;37207;53.060;18.726;2023-05-08T08:58:37;102274.01;;;18.98;45.18
51147;BME280;37207;53.060;18.726;2023-05-08T09:01:14;102271.98;;;19.03;44.58
51147;BME280;37207;53.060;18.726;2023-05-08T09:03:41;102270.08;;;19.19;45.29
51147;BME280;37207;53.060;18.726;2023-05-08T09:06:08;102271.45;;;19.39;44.29
51147;BME280;37207;53.060;18.726;2023-05-08T09:08:36;102269.45;;;19.63;44.68
51147;BME280;37207;53.060;18.726;2023-05-08T09:11:02;102267.02;;;20.09;44.56
51147;BME280;37207;53.060;18.726;2023-05-08T09:13:29;102264.25;;;21.04;43.88
51147;BME280;37207;53.060;18.726;2023-05-08T09:15:59;102265.70;;;22.19;40.88
51147;BME280;37207;53.060;18.726;2023-05-08T09:18:26;102262.03;;;23.18;38.61
51147;BME280;37207;53.060;18.726;2023-05-08T09:20:53;102260.23;;;23.70;38.62
51147;BME280;37207;53.060;18.726;2023-05-08T09:23:19;102262.95;;;23.50;38.40
51147;BME280;37207;53.060;18.726;2023-05-08T09:25:47;102267.09;;;23.27;38.04
51147;BME280;37207;53.060;18.726;2023-05-08T09:28:19;102261.61;;;23.10;38.22
51147;BME280;37207;53.060;18.726;2023-05-08T09:30:49;102259.41;;;22.90;38.10
51147;BME280;37207;53.060;18.726;2023-05-08T09:33:17;102253.18;;;22.76;38.39
51147;BME280;37207;53.060;18.726;2023-05-08T09:35:43;102257.53;;;22.71;38.95
51147;BME280;37207;53.060;18.726;2023-05-08T09:41:13;102250.05;;;22.56;38.36
51147;BME280;37207;53.060;18.726;2023-05-08T09:43:44;102250.98;;;22.48;37.58
51147;BME280;37207;53.060;18.726;2023-05-08T09:46:25;102244.89;;;22.42;37.94
51147;BME280;37207;53.060;18.726;2023-05-08T09:48:57;102248.03;;;22.36;37.39
51147;BME280;37207;53.060;18.726;2023-05-08T09:51:25;102241.65;;;22.35;37.93
51147;BME280;37207;53.060;18.726;2023-05-08T09:53:54;102241.91;;;22.34;38.19
51147;BME280;37207;53.060;18.726;2023-05-08T09:58:56;102237.55;;;22.17;36.74
51147;BME280;37207;53.060;18.726;2023-05-08T10:01:33;102239.69;;;22.04;35.55
51147;BME280;37207;53.060;18.726;2023-05-08T10:04:01;102240.86;;;21.81;36.16
51147;BME280;37207;53.060;18.726;2023-05-08T10:06:29;102240.98;;;21.83;37.59
51147;BME280;37207;53.060;18.726;2023-05-08T10:09:06;102235.63;;;22.01;37.08
51147;BME280;37207;53.060;18.726;2023-05-08T10:11:33;102231.65;;;22.14;36.69
51147;BME280;37207;53.060;18.726;2023-05-08T10:13:59;102231.20;;;22.18;35.79
51147;BME280;37207;53.060;18.726;2023-05-08T10:16:28;102232.06;;;22.23;35.03
51147;BME280;37207;53.060;18.726;2023-05-08T10:18:58;102232.25;;;22.16;34.40
51147;BME280;37207;53.060;18.726;2023-05-08T10:21:32;102231.90;;;22.19;34.84
51147;BME280;37207;53.060;18.726;2023-05-08T10:24:04;102229.49;;;22.37;34.57
51147;BME280;37207;53.060;18.726;2023-05-08T10:26:32;102229.16;;;22.52;34.49
51147;BME280;37207;53.060;18.726;2023-05-08T10:29:04;102227.42;;;22.64;34.24
51147;BME280;37207;53.060;18.726;2023-05-08T10:31:35;102227.80;;;22.94;34.65
51147;BME280;37207;53.060;18.726;2023-05-08T10:34:05;102222.42;;;23.44;34.41
51147;BME280;37207;53.060;18.726;2023-05-08T10:36:31;102222.16;;;23.72;32.94
51147;BME280;37207;53.060;18.726;2023-05-08T10:38:58;102219.63;;;23.66;32.50
51147;BME280;37207;53.060;18.726;2023-05-08T10:41:25;102215.42;;;23.69;32.67
51147;BME280;37207;53.060;18.726;2023-05-08T10:43:53;102211.95;;;24.01;31.87
51147;BME280;37207;53.060;18.726;2023-05-08T10:52:17;102208.69;;;26.91;29.27
51147;BME280;37207;53.060;18.726;2023-05-08T10:57:30;102204.02;;;28.48;26.58
51147;BME280;37207;53.060;18.726;2023-05-08T10:59:57;102206.08;;;29.06;26.94
51147;BME280;37207;53.060;18.726;2023-05-08T11:02:28;102200.63;;;29.70;26.73
51147;BME280;37207;53.060;18.726;2023-05-08T11:05:16;102203.13;;;30.13;25.91
51147;BME280;37207;53.060;18.726;2023-05-08T11:07:57;102197.98;;;30.27;25.50
51147;BME280;37207;53.060;18.726;2023-05-08T11:10:30;102198.34;;;30.02;25.00
51147;BME280;37207;53.060;18.726;2023-05-08T11:12:58;102197.95;;;29.42;24.84
51147;BME280;37207;53.060;18.726;2023-05-08T11:15:36;102190.39;;;29.02;25.64
51147;BME280;37207;53.060;18.726;2023-05-08T11:18:05;102190.64;;;28.85;26.03
51147;BME280;37207;53.060;18.726;2023-05-08T11:20:38;102187.30;;;28.62;25.50
51147;BME280;37207;53.060;18.726;2023-05-08T11:23:24;102185.41;;;28.39;26.18
51147;BME280;37207;53.060;18.726;2023-05-08T11:26:03;102180.20;;;28.08;26.59
51147;BME280;37207;53.060;18.726;2023-05-08T11:28:31;102182.56;;;27.81;26.96
51147;BME280;37207;53.060;18.726;2023-05-08T11:31:02;102183.39;;;27.75;27.69
51147;BME280;37207;53.060;18.726;2023-05-08T11:33:34;102184.44;;;27.60;27.54
51147;BME280;37207;53.060;18.726;2023-05-08T11:38:40;102178.84;;;26.88;27.74
51147;BME280;37207;53.060;18.726;2023-05-08T11:41:09;102180.10;;;26.66;28.19
51147;BME280;37207;53.060;18.726;2023-05-08T11:46:16;102173.19;;;26.31;27.54
51147;BME280;37207;53.060;18.726;2023-05-08T11:48:44;102168.69;;;26.07;28.38
51147;BME280;37207;53.060;18.726;2023-05-08T11:51:11;102169.11;;;25.90;28.43
51147;BME280;37207;53.060;18.726;2023-05-08T11:53:39;102166.59;;;25.79;28.64
51147;BME280;37207;53.060;18.726;2023-05-08T11:56:06;102160.20;;;25.49;28.97
51147;BME280;37207;53.060;18.726;2023-05-08T11:58:33;102163.30;;;25.31;29.78
51147;BME280;37207;53.060;18.726;2023-05-08T12:01:00;102159.05;;;25.26;30.20
51147;BME280;37207;53.060;18.726;2023-05-08T12:03:26;102156.35;;;25.45;29.97
51147;BME280;37207;53.060;18.726;2023-05-08T12:05:57;102157.58;;;25.64;29.18
51147;BME280;37207;53.060;18.726;2023-05-08T12:08:24;102157.35;;;25.56;28.87
51147;BME280;37207;53.060;18.726;2023-05-08T12:10:53;102157.88;;;25.11;28.53
51147;BME280;37207;53.060;18.726;2023-05-08T12:15:52;102156.27;;;23.98;28.94
51147;BME280;37207;53.060;18.726;2023-05-08T12:18:20;102154.31;;;23.93;29.12
51147;BME280;37207;53.060;18.726;2023-05-08T12:20:52;102148.20;;;24.14;29.49
51147;BME280;37207;53.060;18.726;2023-05-08T12:23:19;102146.27;;;24.46;30.05
51147;BME280;37207;53.060;18.726;2023-05-08T12:25:46;102142.77;;;24.53;29.55
51147;BME280;37207;53.060;18.726;2023-05-08T12:28:12;102140.42;;;24.41;29.75
51147;BME280;37207;53.060;18.726;2023-05-08T12:30:39;102139.42;;;24.35;29.65
51147;BME280;37207;53.060;18.726;2023-05-08T12:33:07;102138.81;;;24.42;29.69
51147;BME280;37207;53.060;18.726;2023-05-08T12:35:34;102137.19;;;24.37;29.26
51147;BME280;37207;53.060;18.726;2023-05-08T12:38:02;102132.83;;;24.48;29.36
51147;BME280;37207;53.060;18.726;2023-05-08T12:40:31;102132.70;;;24.53;29.62
51147;BME280;37207;53.060;18.726;2023-05-08T12:43:00;102134.38;;;24.08;29.20
51147;BME280;37207;53.060;18.726;2023-05-08T12:45:39;102131.42;;;24.09;29.79
51147;BME280;37207;53.060;18.726;2023-05-08T12:48:13;102127.91;;;23.97;30.13
51147;BME280;37207;53.060;18.726;2023-05-08T12:50:44;102124.89;;;23.97;30.70
51147;BME280;37207;53.060;18.726;2023-05-08T12:53:15;102123.38;;;24.18;30.52
51147;BME280;37207;53.060;18.726;2023-05-08T12:55:56;102121.71;;;24.51;29.69
51147;BME280;37207;53.060;18.726;2023-05-08T12:58:25;102122.95;;;24.75;28.89
51147;BME280;37207;53.060;18.726;2023-05-08T13:00:52;102118.73;;;24.97;28.44
51147;BME280;37207;53.060;18.726;2023-05-08T13:03:27;102114.73;;;25.30;28.58
51147;BME280;37207;53.060;18.726;2023-05-08T13:05:57;102119.20;;;25.44;27.68
51147;BME280;37207;53.060;18.726;2023-05-08T13:08:31;102114.92;;;25.08;27.33
51147;BME280;37207;53.060;18.726;2023-05-08T13:10:59;102108.48;;;24.90;28.89
51147;BME280;37207;53.060;18.726;2023-05-08T13:13:28;102105.20;;;24.67;28.61
51147;BME280;37207;53.060;18.726;2023-05-08T13:15:56;102098.98;;;24.50;29.68
51147;BME280;37207;53.060;18.726;2023-05-08T13:18:25;102104.27;;;24.35;29.17
51147;BME280;37207;53.060;18.726;2023-05-08T13:20:53;102104.96;;;23.81;28.89
51147;BME280;37207;53.060;18.726;2023-05-08T13:23:21;102100.98;;;23.42;29.63
51147;BME280;37207;53.060;18.726;2023-05-08T13:25:48;102102.04;;;23.33;29.85
51147;BME280;37207;53.060;18.726;2023-05-08T13:28:15;102094.95;;;23.13;29.28
51147;BME280;37207;53.060;18.726;2023-05-08T13:30:42;102094.00;;;22.87;29.63
51147;BME280;37207;53.060;18.726;2023-05-08T13:33:08;102092.82;;;22.59;29.68
51147;BME280;37207;53.060;18.726;2023-05-08T13:35:35;102087.04;;;22.31;30.32
51147;BME280;37207;53.060;18.726;2023-05-08T13:38:02;102089.60;;;22.34;30.59
51147;BME280;37207;53.060;18.726;2023-05-08T13:40:28;102088.70;;;22.43;30.35